Time;durP1;ratioP1;P1;durP2;ratioP2;P2;SDS_P1;SDS_P2;PMS_P1;PMS_P2;Temp;Humidity;BMP_temperature;BMP_pressure;BME280_temperature;BME280_humidity;BME280_pressure;Samples;Min_cycle;Max_cycle;Signal;HPM_P1;HPM_P2
2022/10/18 00:01:08;;;;;;;0.23;0.23;;;;;;;9.95;70.80;100856.81;5113556;28;20283;-58
2022/10/18 00:03:36;;;;;;;0.20;0.20;;;;;;;9.86;71.61;100852.91;5113418;28;20228;-58
2022/10/18 00:06:03;;;;;;;0.40;0.40;;;;;;;9.74;71.71;100859.34;5113647;28;20788;-58
2022/10/18 00:08:30;;;;;;;0.20;0.20;;;;;;;9.70;71.81;100847.56;5113376;28;20260;-63
2022/10/18 00:10:59;;;;;;;0.27;0.27;;;;;;;9.63;72.05;100847.88;5113266;28;20193;-63
2022/10/18 00:13:26;;;;;;;0.20;0.20;;;;;;;9.56;71.94;100852.41;5113100;28;20221;-59
2022/10/18 00:15:57;;;;;;;0.20;0.20;;;;;;;9.52;72.68;100848.31;5113369;28;20271;-63
2022/10/18 00:18:24;;;;;;;0.73;0.30;;;;;;;9.54;72.93;100849.09;5112930;28;20700;-61
2022/10/18 00:20:58;;;;;;;0.57;0.57;;;;;;;9.52;72.92;100835.56;5113277;28;20197;-63
2022/10/18 00:23:25;;;;;;;0.43;0.43;;;;;;;9.48;73.03;100834.00;5112626;28;20233;-63
2022/10/18 00:26:04;;;;;;;0.27;0.27;;;;;;;9.43;73.62;100825.72;5112882;28;20201;-63
2022/10/18 00:28:31;;;;;;;0.43;0.43;;;;;;;9.44;73.41;100827.38;5112821;28;20584;-58
2022/10/18 00:30:58;;;;;;;0.10;0.10;;;;;;;9.40;73.76;100820.72;5112784;28;20193;-63
2022/10/18 00:33:25;;;;;;;0.47;0.40;;;;;;;9.31;73.84;100811.72;5112566;28;20711;-63
2022/10/18 00:35:51;;;;;;;0.27;0.27;;;;;;;9.25;73.74;100817.88;5112602;28;20197;-63
2022/10/18 00:38:18;;;;;;;0.10;0.10;;;;;;;9.23;73.79;100819.66;5112587;28;20778;-64
2022/10/18 00:40:45;;;;;;;0.20;0.20;;;;;;;9.15;73.84;100811.47;5113051;28;20220;-63
2022/10/18 00:43:17;;;;;;;0.63;0.50;;;;;;;9.11;74.08;100814.22;5112306;28;20216;-63
2022/10/18 00:45:44;;;;;;;0.10;0.10;;;;;;;9.16;74.20;100808.03;5112795;28;20197;-58
2022/10/18 00:48:13;;;;;;;0.10;0.10;;;;;;;9.18;74.13;100811.34;5112547;28;20240;-64
2022/10/18 00:50:40;;;;;;;0.37;0.20;;;;;;;9.17;74.43;100808.88;5112700;28;20199;-62
2022/10/18 00:53:12;;;;;;;0.10;0.10;;;;;;;9.10;74.81;100808.25;5112159;28;20216;-59
2022/10/18 00:55:39;;;;;;;0.70;0.50;;;;;;;8.96;75.72;100805.38;5112670;28;20633;-58
2022/10/18 00:58:06;;;;;;;0.20;0.20;;;;;;;8.90;75.54;100806.47;5112177;28;20217;-63
2022/10/18 01:00:37;;;;;;;0.30;0.30;;;;;;;8.85;75.89;100803.28;5112273;28;20209;-63
2022/10/18 01:03:05;;;;;;;0.37;0.37;;;;;;;8.78;75.99;100797.53;5112335;27;20216;-63
2022/10/18 01:05:32;;;;;;;1.20;0.80;;;;;;;8.77;76.37;100800.16;5112208;28;20201;-58
2022/10/18 01:08:21;;;;;;;0.30;0.30;;;;;;;8.71;76.11;100791.03;5111742;27;20252;-59
2022/10/18 01:11:00;;;;;;;0.40;0.40;;;;;;;8.71;76.79;100796.13;5112306;28;20201;-63
2022/10/18 01:13:37;;;;;;;0.10;0.10;;;;;;;8.68;76.63;100791.13;5111837;28;20225;-58
2022/10/18 01:16:12;;;;;;;0.27;0.27;;;;;;;8.70;76.66;100791.91;5112167;28;20752;-58
2022/10/18 01:18:46;;;;;;;0.00;0.00;;;;;;;8.73;76.68;100785.88;5112294;28;20220;-58
2022/10/18 01:21:20;;;;;;;0.13;0.13;;;;;;;8.68;76.87;100786.03;5112123;28;20209;-63
2022/10/18 01:24:25;;;;;;;0.60;0.60;;;;;;;8.66;77.42;100782.72;5112034;28;20208;-58
2022/10/18 01:27:14;;;;;;;0.57;0.50;;;;;;;8.61;77.53;100784.63;5111622;28;20228;-63
2022/10/18 01:29:55;;;;;;;0.37;0.37;;;;;;;8.55;77.60;100782.25;5112045;28;20197;-63
2022/10/18 01:32:27;;;;;;;0.33;0.33;;;;;;;8.54;77.85;100778.06;5111394;28;20244;-63
2022/10/18 01:35:01;;;;;;;0.20;0.20;;;;;;;8.53;78.05;100777.25;5111999;28;20681;-61
2022/10/18 01:37:30;;;;;;;0.20;0.17;;;;;;;8.57;77.84;100771.13;5111850;28;20228;-63
2022/10/18 01:40:02;;;;;;;0.40;0.40;;;;;;;8.56;77.39;100777.13;5111610;28;20209;-58
2022/10/18 01:42:29;;;;;;;0.37;0.30;;;;;;;8.58;77.59;100777.06;5111209;28;20217;-63
2022/10/18 01:44:57;;;;;;;0.13;0.13;;;;;;;8.54;77.38;100772.97;5111507;28;20224;-58
2022/10/18 01:47:26;;;;;;;0.40;0.27;;;;;;;8.47;77.84;100774.09;5110942;28;20229;-63
2022/10/18 01:49:58;;;;;;;0.10;0.10;;;;;;;8.44;77.89;100764.00;5111814;28;20201;-58
2022/10/18 01:52:25;;;;;;;0.23;0.23;;;;;;;8.39;77.63;100770.09;5111076;27;20217;-59
2022/10/18 01:54:53;;;;;;;0.57;0.40;;;;;;;8.41;77.77;100761.53;5110653;28;20198;-58
2022/10/18 01:57:29;;;;;;;0.40;0.40;;;;;;;8.38;77.86;100768.44;5110871;28;20221;-63
2022/10/18 01:59:59;;;;;;;0.73;0.40;;;;;;;8.39;77.84;100764.16;5111834;28;20201;-58
2022/10/18 02:02:44;;;;;;;0.47;0.47;;;;;;;8.35;77.75;100768.53;5111237;28;20725;-58
2022/10/18 02:05:19;;;;;;;0.77;0.77;;;;;;;8.23;77.85;100763.88;5111356;28;20572;-58
2022/10/18 02:07:52;;;;;;;0.40;0.40;;;;;;;8.24;77.96;100768.06;5110900;28;20239;-60
2022/10/18 02:10:28;;;;;;;0.20;0.20;;;;;;;8.23;77.87;100763.00;5110897;28;20208;-58
2022/10/18 02:12:56;;;;;;;0.30;0.30;;;;;;;8.17;77.70;100764.06;5110705;28;20225;-63
2022/10/18 02:15:26;;;;;;;0.50;0.50;;;;;;;8.16;77.59;100767.50;5110797;28;20201;-63
2022/10/18 02:17:56;;;;;;;0.33;0.27;;;;;;;8.17;77.67;100764.06;5110537;27;20224;-63
2022/10/18 02:20:25;;;;;;;0.73;0.70;;;;;;;8.18;77.61;100765.75;5110687;28;20211;-58
2022/10/18 02:22:55;;;;;;;0.93;0.90;;;;;;;8.09;78.00;100768.63;5110658;28;20229;-58
2022/10/18 02:25:27;;;;;;;1.30;1.20;;;;;;;8.06;78.40;100763.63;5111071;28;20205;-58
2022/10/18 02:27:55;;;;;;;1.80;1.03;;;;;;;8.10;78.27;100767.72;5110450;28;20233;-58
2022/10/18 02:30:24;;;;;;;0.70;0.70;;;;;;;8.04;78.28;100768.75;5110572;28;20204;-63
2022/10/18 02:32:58;;;;;;;1.30;0.97;;;;;;;7.97;79.02;100761.38;5110442;28;20483;-61
2022/10/18 02:35:30;;;;;;;0.67;0.67;;;;;;;8.06;79.03;100763.63;5110562;28;20587;-58
2022/10/18 02:37:58;;;;;;;1.47;1.23;;;;;;;8.03;78.84;100756.06;5110331;28;20232;-63
2022/10/18 02:40:26;;;;;;;0.53;0.53;;;;;;;8.02;78.89;100756.97;5110383;28;20590;-58
2022/10/18 02:42:55;;;;;;;0.60;0.60;;;;;;;8.00;78.99;100761.25;5110438;28;20221;-58
2022/10/18 02:45:23;;;;;;;0.80;0.80;;;;;;;8.04;78.76;100760.28;5110352;28;20212;-63
2022/10/18 02:47:50;;;;;;;5.30;0.73;;;;;;;8.03;78.43;100762.00;5110106;28;20237;-63
2022/10/18 02:50:19;;;;;;;0.63;0.63;;;;;;;7.96;78.60;100759.72;5110379;28;20201;-63
2022/10/18 02:52:46;;;;;;;0.50;0.50;;;;;;;7.96;78.58;100764.81;5109959;28;20217;-63
2022/10/18 02:55:12;;;;;;;0.20;0.20;;;;;;;7.94;78.48;100768.25;5110355;28;20608;-58
2022/10/18 02:57:39;;;;;;;0.77;0.50;;;;;;;7.91;78.58;100765.81;5110409;28;20217;-62
2022/10/18 03:00:08;;;;;;;0.60;0.60;;;;;;;7.93;78.07;100770.84;5110266;28;20294;-63
2022/10/18 03:02:35;;;;;;;0.60;0.60;;;;;;;7.89;77.79;100770.13;5110365;28;20221;-58
2022/10/18 03:05:02;;;;;;;0.60;0.60;;;;;;;7.82;78.14;100773.75;5110375;28;20232;-58
2022/10/18 03:07:30;;;;;;;0.63;0.57;;;;;;;7.77;78.11;100774.81;5111270;28;20240;-63
2022/10/18 03:09:57;;;;;;;0.47;0.47;;;;;;;7.68;78.48;100776.78;5114435;28;20555;-61
2022/10/18 03:12:23;;;;;;;0.27;0.27;;;;;;;7.64;78.94;100767.56;5114183;28;20216;-63
2022/10/18 03:14:50;;;;;;;0.40;0.40;;;;;;;7.62;79.15;100773.56;5114646;28;20209;-63
2022/10/18 03:17:17;;;;;;;0.40;0.40;;;;;;;7.63;78.95;100765.91;5114266;28;20647;-63
2022/10/18 03:19:44;;;;;;;0.80;0.80;;;;;;;7.64;79.01;100769.28;5114242;28;20197;-58
2022/10/18 03:22:11;;;;;;;0.30;0.30;;;;;;;7.64;79.20;100764.19;5114381;28;20725;-58
2022/10/18 03:24:39;;;;;;;0.20;0.20;;;;;;;7.68;79.46;100768.31;5114657;28;20196;-58
2022/10/18 03:27:05;;;;;;;0.40;0.40;;;;;;;7.55;79.59;100762.78;5114241;28;20605;-58
2022/10/18 03:29:32;;;;;;;1.10;0.63;;;;;;;7.49;79.49;100761.25;5114062;28;20256;-63
2022/10/18 03:31:59;;;;;;;0.93;0.77;;;;;;;7.39;79.71;100764.19;5113852;28;20220;-58
2022/10/18 03:34:26;;;;;;;0.67;0.43;;;;;;;7.40;80.20;100756.47;5113992;28;20201;-58
2022/10/18 03:36:53;;;;;;;1.40;1.30;;;;;;;7.46;80.98;100756.28;5113713;28;20228;-58
2022/10/18 03:39:20;;;;;;;1.13;1.03;;;;;;;7.47;81.10;100752.84;5113992;28;20284;-63
2022/10/18 03:41:49;;;;;;;2.97;0.60;;;;;;;7.41;80.80;100754.75;5113729;28;20213;-58
2022/10/18 03:44:16;;;;;;;0.37;0.37;;;;;;;7.37;80.57;100759.13;5113897;28;20659;-58
2022/10/18 03:46:43;;;;;;;0.90;0.90;;;;;;;7.41;80.97;100747.94;5113610;28;20213;-63
2022/10/18 03:49:10;;;;;;;0.90;0.73;;;;;;;7.40;81.09;100759.03;5113840;28;20256;-58
2022/10/18 03:51:36;;;;;;;0.23;0.23;;;;;;;7.45;81.18;100754.63;5113620;28;20197;-63
2022/10/18 03:54:04;;;;;;;0.63;0.63;;;;;;;7.43;81.26;100758.91;5113470;28;20197;-58
2022/10/18 03:56:31;;;;;;;1.13;1.03;;;;;;;7.34;80.62;100756.69;5113427;28;20216;-58
2022/10/18 03:58:59;;;;;;;1.93;1.00;;;;;;;7.28;80.70;100761.97;5113622;28;20283;-63
2022/10/18 04:01:26;;;;;;;1.53;0.70;;;;;;;7.21;80.67;100765.56;5113420;28;20224;-63
2022/10/18 04:03:53;;;;;;;0.87;0.87;;;;;;;7.14;80.98;100753.94;5113481;28;20197;-58
2022/10/18 04:06:20;;;;;;;0.50;0.50;;;;;;;7.26;82.10;100749.28;5113184;28;20591;-63
2022/10/18 04:08:47;;;;;;;1.87;1.37;;;;;;;7.28;82.26;100749.25;5113333;28;20225;-62
2022/10/18 04:11:14;;;;;;;1.70;1.17;;;;;;;7.24;82.29;100751.06;5113310;28;20586;-60
2022/10/18 04:13:41;;;;;;;0.70;0.70;;;;;;;7.22;82.49;100749.44;5113404;28;20224;-58
2022/10/18 04:16:09;;;;;;;2.67;2.03;;;;;;;7.22;82.16;100752.81;5113530;28;20557;-62
2022/10/18 04:18:36;;;;;;;0.53;0.53;;;;;;;7.24;82.40;100750.19;5112616;28;20221;-62
2022/10/18 04:21:02;;;;;;;1.70;0.63;;;;;;;7.22;82.51;100744.34;5113145;28;20705;-62
2022/10/18 04:23:29;;;;;;;1.90;0.90;;;;;;;7.22;82.58;100741.81;5113167;28;20225;-57
2022/10/18 04:25:56;;;;;;;0.73;0.73;;;;;;;7.30;82.77;100742.41;5112939;28;20530;-57
2022/10/18 04:28:23;;;;;;;2.57;0.77;;;;;;;7.32;82.46;100747.41;5112577;28;20239;-58
2022/10/18 04:30:51;;;;;;;1.20;0.93;;;;;;;7.22;82.74;100742.63;5113149;28;20204;-56
2022/10/18 04:33:19;;;;;;;0.50;0.43;;;;;;;7.14;82.91;100753.94;5112769;28;20241;-59
2022/10/18 04:35:47;;;;;;;0.80;0.80;;;;;;;7.13;83.16;100747.19;5112831;28;20212;-55
2022/10/18 04:38:14;;;;;;;0.50;0.50;;;;;;;7.10;83.61;100744.72;5112709;28;20240;-58
2022/10/18 04:40:41;;;;;;;1.00;0.90;;;;;;;7.11;83.67;100748.94;5113077;28;20258;-63
2022/10/18 04:43:07;;;;;;;1.60;0.90;;;;;;;7.14;83.67;100753.94;5112642;28;20715;-63
2022/10/18 04:45:34;;;;;;;1.00;0.90;;;;;;;7.15;83.78;100745.41;5112751;28;20201;-63
2022/10/18 04:48:01;;;;;;;0.77;0.77;;;;;;;7.21;83.32;100747.75;5112216;28;20217;-59
2022/10/18 04:50:29;;;;;;;1.33;1.07;;;;;;;7.21;83.40;100745.22;5112622;28;20201;-58
2022/10/18 04:52:56;;;;;;;1.00;1.00;;;;;;;7.25;83.32;100746.78;5112355;28;20224;-63
2022/10/18 04:55:23;;;;;;;1.20;1.10;;;;;;;7.28;83.30;100744.16;5112320;28;20205;-63
2022/10/18 04:57:50;;;;;;;2.07;1.07;;;;;;;7.23;83.37;100738.38;5112146;28;20235;-63
2022/10/18 05:00:17;;;;;;;1.50;1.10;;;;;;;7.24;83.49;100745.13;5112649;28;20201;-63
2022/10/18 05:02:44;;;;;;;0.30;0.30;;;;;;;7.30;83.36;100750.03;5112148;28;20237;-58
2022/10/18 05:05:11;;;;;;;1.63;0.90;;;;;;;7.33;83.53;100744.84;5112605;28;20216;-58
2022/10/18 05:07:39;;;;;;;0.77;0.60;;;;;;;7.32;83.77;100748.25;5112044;28;20225;-63
2022/10/18 05:10:07;;;;;;;3.27;0.87;;;;;;;7.25;84.01;100746.78;5112286;28;20252;-63
2022/10/18 05:12:33;;;;;;;0.77;0.77;;;;;;;7.29;84.23;100752.63;5111865;28;20221;-58
2022/10/18 05:15:00;;;;;;;2.57;1.40;;;;;;;7.30;84.46;100752.56;5112280;28;20219;-63
2022/10/18 05:17:27;;;;;;;1.30;0.83;;;;;;;7.34;84.66;100756.69;5111905;28;20213;-58
2022/10/18 05:19:54;;;;;;;1.40;0.70;;;;;;;7.38;84.51;100758.22;5111870;28;20197;-58
2022/10/18 05:22:20;;;;;;;0.40;0.40;;;;;;;7.37;84.77;100761.66;5111806;28;20262;-63
2022/10/18 05:24:49;;;;;;;1.33;0.50;;;;;;;7.41;84.61;100763.22;5112221;28;20205;-58
2022/10/18 05:27:15;;;;;;;0.63;0.63;;;;;;;7.46;84.92;100755.44;5111619;28;20255;-58
2022/10/18 05:29:42;;;;;;;0.60;0.60;;;;;;;7.54;84.86;100762.84;5111255;28;20221;-63
2022/10/18 05:32:09;;;;;;;0.87;0.80;;;;;;;7.71;84.66;100763.13;5111829;28;20213;-63
2022/10/18 05:34:36;;;;;;;0.40;0.40;;;;;;;7.91;84.32;100753.09;5111808;28;20197;-63
2022/10/18 05:37:03;;;;;;;0.60;0.60;;;;;;;8.02;84.92;100754.41;5111631;28;20604;-59
2022/10/18 05:39:29;;;;;;;1.40;1.00;;;;;;;8.19;84.79;100764.84;5111517;28;20197;-61
2022/10/18 05:41:58;;;;;;;0.67;0.30;;;;;;;8.35;85.24;100762.59;5111628;28;20225;-63
2022/10/18 05:44:25;;;;;;;0.60;0.60;;;;;;;8.56;84.74;100761.84;5111820;27;20209;-59
2022/10/18 05:46:52;;;;;;;0.40;0.40;;;;;;;8.90;84.71;100764.81;5111200;28;20593;-63
2022/10/18 05:49:19;;;;;;;0.50;0.33;;;;;;;9.38;83.08;100761.25;5111477;28;20251;-58
2022/10/18 05:51:46;;;;;;;0.53;0.47;;;;;;;9.90;79.19;100759.09;5111513;28;20292;-59
2022/10/18 05:54:13;;;;;;;1.13;0.80;;;;;;;10.32;77.96;100765.81;5111235;28;20198;-64
2022/10/18 05:56:40;;;;;;;0.97;0.67;;;;;;;10.80;78.56;100767.06;5111174;28;20213;-64
2022/10/18 05:59:10;;;;;;;0.70;0.70;;;;;;;11.22;77.96;100769.31;5111044;28;20208;-64
2022/10/18 06:01:38;;;;;;;0.67;0.67;;;;;;;11.62;76.66;100771.69;5110985;28;20221;-63
2022/10/18 06:04:05;;;;;;;0.23;0.23;;;;;;;12.05;75.72;100764.41;5111357;28;20198;-58
2022/10/18 06:06:32;;;;;;;0.37;0.37;;;;;;;12.50;73.57;100765.47;5110865;28;20208;-63
2022/10/18 06:09:02;;;;;;;0.77;0.63;;;;;;;12.94;72.85;100769.94;5111002;28;20224;-63
2022/10/18 06:11:30;;;;;;;0.43;0.43;;;;;;;13.44;68.15;100766.28;5110688;28;20683;-59
2022/10/18 06:13:57;;;;;;;1.70;0.57;;;;;;;13.78;65.84;100775.44;5110916;28;20212;-59
2022/10/18 06:16:26;;;;;;;1.57;0.90;;;;;;;14.08;63.60;100770.25;5110875;28;20259;-64
2022/10/18 06:18:54;;;;;;;1.00;0.90;;;;;;;14.44;62.85;100774.09;5111022;28;20237;-64
2022/10/18 06:21:22;;;;;;;0.63;0.60;;;;;;;14.71;61.06;100766.41;5110920;28;20202;-58
2022/10/18 06:23:49;;;;;;;0.60;0.50;;;;;;;15.04;58.42;100771.19;5110994;28;20582;-59
2022/10/18 06:26:16;;;;;;;2.60;1.00;;;;;;;15.24;59.36;100774.22;5110973;28;20702;-63
2022/10/18 06:28:44;;;;;;;1.30;1.20;;;;;;;15.42;56.40;100775.63;5110897;28;20234;-58
2022/10/18 06:31:12;;;;;;;0.60;0.60;;;;;;;15.72;57.95;100777.13;5109759;28;20744;-59
2022/10/18 06:33:40;;;;;;;0.87;0.73;;;;;;;16.09;54.78;100772.09;5110502;28;20228;-63
2022/10/18 06:36:10;;;;;;;1.20;0.77;;;;;;;16.17;54.39;100772.34;5110721;28;20574;-59
2022/10/18 06:38:38;;;;;;;0.77;0.77;;;;;;;15.95;55.65;100768.66;5110819;28;20232;-64
2022/10/18 06:41:06;;;;;;;1.57;1.13;;;;;;;16.42;53.10;100768.91;5110467;28;20205;-58
2022/10/18 06:43:33;;;;;;;0.70;0.70;;;;;;;16.47;53.43;100772.81;5110365;28;20596;-64
2022/10/18 06:46:02;;;;;;;0.97;0.77;;;;;;;16.60;53.52;100764.22;5110383;28;20201;-59
2022/10/18 06:48:29;;;;;;;1.80;0.80;;;;;;;16.59;52.68;100765.97;5110184;28;20784;-60
2022/10/18 06:50:58;;;;;;;0.83;0.83;;;;;;;15.94;51.59;100773.91;5110342;28;20236;-59
2022/10/18 06:53:26;;;;;;;0.40;0.40;;;;;;;16.09;54.67;100770.31;5109964;28;20229;-59
2022/10/18 06:55:58;;;;;;;0.93;0.70;;;;;;;16.43;52.30;100762.81;5110217;28;20209;-59
2022/10/18 06:58:25;;;;;;;0.40;0.40;;;;;;;16.32;54.72;100771.31;5110142;28;20232;-63
2022/10/18 07:00:52;;;;;;;1.67;1.00;;;;;;;16.21;54.09;100766.06;5110165;28;20669;-63
2022/10/18 07:03:20;;;;;;;0.73;0.60;;;;;;;16.89;52.06;100770.75;5109946;28;20232;-58
2022/10/18 07:05:47;;;;;;;1.57;0.80;;;;;;;17.30;51.45;100769.50;5110529;28;20202;-64
2022/10/18 07:08:16;;;;;;;0.73;0.73;;;;;;;17.07;50.12;100767.75;5110020;28;20601;-64
2022/10/18 07:10:42;;;;;;;0.70;0.67;;;;;;;17.71;49.79;100765.59;5110268;28;20249;-63
2022/10/18 07:13:09;;;;;;;0.90;0.83;;;;;;;17.64;48.96;100767.00;5110166;28;20236;-64
2022/10/18 07:15:37;;;;;;;0.80;0.80;;;;;;;17.95;47.54;100754.34;5109985;28;20201;-64
2022/10/18 07:18:04;;;;;;;1.93;1.30;;;;;;;18.27;47.37;100755.28;5110234;28;20294;-59
2022/10/18 07:20:31;;;;;;;0.93;0.80;;;;;;;18.42;48.03;100757.63;5110284;28;20642;-59
2022/10/18 07:22:58;;;;;;;4.27;0.87;;;;;;;17.94;47.17;100753.53;5109851;28;20234;-62
2022/10/18 07:25:26;;;;;;;0.73;0.73;;;;;;;18.73;47.53;100756.88;5110069;28;20203;-60
2022/10/18 07:27:53;;;;;;;0.90;0.77;;;;;;;19.33;46.49;100764.16;5110131;28;20222;-64
2022/10/18 07:30:20;;;;;;;0.60;0.60;;;;;;;19.32;45.23;100758.16;5109965;28;20226;-64
2022/10/18 07:32:46;;;;;;;0.80;0.80;;;;;;;19.53;45.68;100755.56;5109841;28;20232;-59
2022/10/18 07:35:13;;;;;;;1.13;0.90;;;;;;;19.97;44.91;100753.63;5109943;28;20209;-59
2022/10/18 07:37:40;;;;;;;2.10;0.80;;;;;;;20.15;43.65;100742.59;5110468;28;20244;-59
2022/10/18 07:40:09;;;;;;;1.60;0.83;;;;;;;20.23;45.74;100748.78;5109975;28;20201;-64
2022/10/18 07:42:38;;;;;;;0.77;0.77;;;;;;;20.55;44.19;100738.22;5109789;28;20222;-64
2022/10/18 07:45:05;;;;;;;0.77;0.77;;;;;;;20.31;45.10;100740.34;5109873;28;20200;-64
2022/10/18 07:47:32;;;;;;;0.80;0.57;;;;;;;20.74;44.75;100736.56;5110003;28;20234;-60
2022/10/18 07:49:59;;;;;;;1.10;1.00;;;;;;;20.94;43.28;100740.84;5110045;28;20218;-59
2022/10/18 07:52:26;;;;;;;1.10;0.80;;;;;;;20.50;43.77;100724.75;5109823;28;20601;-64
2022/10/18 07:54:52;;;;;;;0.70;0.70;;;;;;;21.05;44.52;100731.25;5113057;28;20686;-59
2022/10/18 07:57:19;;;;;;;0.93;0.80;;;;;;;21.05;43.55;100723.44;5113755;28;20217;-64
2022/10/18 07:59:51;;;;;;;0.67;0.67;;;;;;;21.28;42.17;100724.78;5113616;28;20205;-60
2022/10/18 08:02:18;;;;;;;1.30;1.07;;;;;;;21.40;41.75;100728.88;5113446;28;20223;-59
2022/10/18 08:04:46;;;;;;;1.23;0.97;;;;;;;21.63;41.20;100716.34;5113776;28;20247;-60
2022/10/18 08:07:12;;;;;;;1.07;0.97;;;;;;;21.74;40.91;100720.56;5113157;28;20293;-64
2022/10/18 08:09:39;;;;;;;1.10;1.00;;;;;;;21.58;41.21;100720.34;5113772;28;20638;-60
2022/10/18 08:12:06;;;;;;;0.97;0.97;;;;;;;21.52;41.00;100710.50;5113046;28;20222;-64
2022/10/18 08:14:33;;;;;;;1.00;0.90;;;;;;;21.74;40.79;100710.16;5113497;28;20192;-64
2022/10/18 08:17:01;;;;;;;1.07;0.97;;;;;;;21.82;41.03;100707.66;5113284;28;20210;-64
2022/10/18 08:19:28;;;;;;;1.10;1.00;;;;;;;22.14;42.37;100711.63;5113729;28;20570;-60
2022/10/18 08:21:55;;;;;;;1.13;1.03;;;;;;;22.22;39.83;100703.91;5112839;28;20231;-60
2022/10/18 08:24:22;;;;;;;1.83;1.07;;;;;;;22.14;39.24;100706.41;5113117;28;20578;-64
2022/10/18 08:26:49;;;;;;;0.80;0.80;;;;;;;20.92;42.95;100703.75;5113132;28;20231;-65
2022/10/18 08:29:16;;;;;;;1.10;0.93;;;;;;;21.58;40.86;100699.53;5113213;28;20200;-59
2022/10/18 08:31:43;;;;;;;1.30;0.90;;;;;;;21.64;41.86;100701.56;5112789;28;20230;-64
2022/10/18 08:34:11;;;;;;;0.90;0.90;;;;;;;22.22;41.27;100701.28;5113015;27;20203;-62
2022/10/18 08:36:38;;;;;;;0.93;0.90;;;;;;;22.19;41.52;100693.78;5112775;28;20250;-59
2022/10/18 08:39:05;;;;;;;0.97;0.87;;;;;;;22.41;39.63;100696.94;5112821;28;20198;-60
2022/10/18 08:41:46;;;;;;;1.20;1.10;;;;;;;22.35;39.06;100696.56;5112753;28;20789;-65
2022/10/18 08:44:18;;;;;;;1.00;0.90;;;;;;;21.96;40.30;100689.91;5113261;28;20715;-65
2022/10/18 08:46:46;;;;;;;1.10;0.77;;;;;;;22.18;39.31;100689.53;5112630;28;20218;-60
2022/10/18 08:49:22;;;;;;;0.70;0.70;;;;;;;22.23;39.15;100694.31;5113043;28;20200;-60
2022/10/18 08:51:51;;;;;;;0.93;0.90;;;;;;;22.00;38.36;100693.88;5112359;28;20228;-60
2022/10/18 08:54:25;;;;;;;0.93;0.83;;;;;;;21.24;39.74;100693.03;5112643;28;20194;-64
2022/10/18 08:56:59;;;;;;;1.33;0.97;;;;;;;19.98;40.21;100695.53;5112183;28;20712;-64
2022/10/18 08:59:28;;;;;;;0.53;0.53;;;;;;;20.46;41.01;100689.63;5112467;28;20385;-65
2022/10/18 09:02:05;;;;;;;0.70;0.70;;;;;;;20.61;38.61;100674.47;5112172;28;20246;-59
2022/10/18 09:04:45;;;;;;;1.33;1.03;;;;;;;21.25;38.70;100681.66;5111628;28;20199;-65
2022/10/18 09:07:37;;;;;;;0.77;0.70;;;;;;;21.66;38.86;100676.22;5112243;28;20246;-60
2022/10/18 09:10:15;;;;;;;1.00;0.70;;;;;;;22.26;39.43;100678.38;5112264;28;20651;-60
2022/10/18 09:12:57;;;;;;;0.63;0.60;;;;;;;22.53;39.18;100677.50;5112297;28;20622;-60
2022/10/18 09:15:34;;;;;;;0.73;0.67;;;;;;;22.13;36.55;100665.69;5112312;27;20196;-60
2022/10/18 09:18:13;;;;;;;1.10;0.80;;;;;;;22.52;38.27;100663.66;5112034;28;20216;-60
2022/10/18 09:20:50;;;;;;;0.50;0.50;;;;;;;21.44;38.45;100662.59;5112029;28;20205;-62
2022/10/18 09:23:21;;;;;;;0.70;0.70;;;;;;;21.72;37.34;100665.22;5111923;28;20623;-60
2022/10/18 09:25:53;;;;;;;0.87;0.57;;;;;;;21.95;38.44;100665.66;5112027;28;20688;-65
2022/10/18 09:28:35;;;;;;;0.70;0.60;;;;;;;22.03;36.34;100667.53;5111847;28;20615;-64
2022/10/18 09:31:09;;;;;;;1.53;1.00;;;;;;;21.70;38.33;100659.34;5111825;28;20231;-65
2022/10/18 09:33:46;;;;;;;0.97;0.77;;;;;;;22.33;37.80;100658.59;5111798;28;20227;-64
2022/10/18 09:36:20;;;;;;;0.83;0.77;;;;;;;22.57;35.92;100666.63;5111905;28;20205;-65
2022/10/18 09:38:51;;;;;;;3.57;1.00;;;;;;;22.65;38.02;100652.84;5111281;28;20205;-60
2022/10/18 09:41:23;;;;;;;0.83;0.70;;;;;;;22.92;38.12;100651.91;5111641;28;20216;-60
2022/10/18 09:43:55;;;;;;;0.77;0.77;;;;;;;22.95;35.21;100649.03;5111775;28;20201;-65
2022/10/18 09:46:27;;;;;;;0.80;0.60;;;;;;;23.22;36.00;100644.63;5111536;28;20209;-65
2022/10/18 09:48:59;;;;;;;1.50;0.97;;;;;;;23.22;36.52;100649.84;5111533;28;20217;-60
2022/10/18 09:51:30;;;;;;;1.13;0.93;;;;;;;23.23;36.87;100644.44;5111162;28;20271;-65
2022/10/18 09:54:13;;;;;;;2.80;0.80;;;;;;;22.41;34.98;100644.81;5111700;28;20212;-65
2022/10/18 09:56:45;;;;;;;0.70;0.70;;;;;;;22.06;39.00;100641.19;5111470;28;20228;-65
2022/10/18 09:59:29;;;;;;;0.77;0.77;;;;;;;21.89;36.29;100638.41;5110841;28;20209;-60
2022/10/18 10:01:56;;;;;;;0.80;0.80;;;;;;;20.88;40.10;100632.19;5111015;28;20243;-65
2022/10/18 10:04:23;;;;;;;1.07;0.87;;;;;;;21.82;37.95;100629.56;5111291;28;20676;-59
2022/10/18 10:06:53;;;;;;;1.10;1.00;;;;;;;21.91;37.22;100618.25;5111028;28;20227;-64
2022/10/18 10:09:28;;;;;;;0.67;0.67;;;;;;;22.42;38.14;100625.59;5111075;28;20581;-60
2022/10/18 10:11:55;;;;;;;1.50;1.13;;;;;;;22.83;37.40;100617.13;5110862;28;20234;-65
2022/10/18 10:14:25;;;;;;;1.03;0.73;;;;;;;22.42;37.16;100615.16;5110927;28;20684;-60
2022/10/18 10:16:54;;;;;;;1.07;0.67;;;;;;;22.60;35.72;100608.13;5110447;28;20255;-65
2022/10/18 10:19:26;;;;;;;0.60;0.60;;;;;;;22.97;36.53;100601.91;5110775;28;20681;-60
2022/10/18 10:21:58;;;;;;;1.10;0.80;;;;;;;22.93;36.07;100597.94;5110907;28;20447;-65
2022/10/18 10:24:33;;;;;;;1.13;1.00;;;;;;;22.60;36.62;100598.56;5110960;28;20219;-60
2022/10/18 10:27:03;;;;;;;0.57;0.53;;;;;;;22.47;36.26;100597.31;5110514;28;20216;-60
2022/10/18 10:29:56;;;;;;;0.90;0.80;;;;;;;22.75;35.78;100591.00;5110588;28;20629;-60
2022/10/18 10:32:26;;;;;;;0.43;0.43;;;;;;;22.92;35.36;100591.06;5110417;28;20247;-60
2022/10/18 10:34:53;;;;;;;1.00;0.87;;;;;;;22.46;35.37;100590.47;5110838;28;20196;-60
2022/10/18 10:37:30;;;;;;;1.03;0.70;;;;;;;23.01;36.11;100579.78;5110261;28;20579;-60
2022/10/18 10:40:22;;;;;;;0.67;0.63;;;;;;;22.53;35.25;100563.63;5110657;28;20193;-65
2022/10/18 10:42:56;;;;;;;1.10;0.60;;;;;;;22.58;35.87;100555.34;5095192;28;20225;-59
2022/10/18 10:45:24;;;;;;;1.07;0.90;;;;;;;22.72;34.97;100551.34;5110509;28;20504;-60
2022/10/18 10:47:53;;;;;;;1.07;0.73;;;;;;;22.45;33.96;100547.09;5110191;28;20227;-65
2022/10/18 10:50:24;;;;;;;0.60;0.60;;;;;;;22.34;36.05;100538.56;5110185;28;20226;-65
2022/10/18 10:52:53;;;;;;;0.77;0.77;;;;;;;22.73;36.81;100530.34;5110313;28;20229;-60
2022/10/18 10:55:27;;;;;;;1.07;0.90;;;;;;;22.36;35.69;100534.00;5110571;28;20202;-59
2022/10/18 10:57:56;;;;;;;1.27;0.83;;;;;;;22.70;36.43;100530.66;5110530;28;20703;-60
2022/10/18 11:11:41;;;;;;;0.98;0.80;;;;;;;23.22;36.38;100508.94;5119617;27;21100;-59
2022/10/18 11:14:16;;;;;;;1.00;0.88;;;;;;;23.17;36.12;100505.97;5087188;28;20194;-60
2022/10/18 11:16:51;;;;;;;0.70;0.70;;;;;;;22.58;34.44;100500.63;5087276;28;20189;-60
2022/10/18 11:19:32;;;;;;;1.00;1.00;;;;;;;22.66;35.04;100495.44;5086756;28;20257;-60
2022/10/18 11:22:04;;;;;;;1.17;1.07;;;;;;;22.59;34.51;100494.41;5087379;28;20194;-65
2022/10/18 11:24:31;;;;;;;0.70;0.70;;;;;;;22.59;36.32;100487.41;5086640;28;20225;-65
2022/10/18 11:27:09;;;;;;;0.90;0.90;;;;;;;22.64;36.38;100478.31;5086728;28;20372;-60
2022/10/18 11:29:54;;;;;;;1.57;1.10;;;;;;;22.25;36.85;100484.78;5086603;28;20243;-64
2022/10/18 11:32:29;;;;;;;3.33;1.00;;;;;;;22.24;37.02;100472.69;5086296;28;20211;-60
2022/10/18 11:35:10;;;;;;;0.97;0.97;;;;;;;22.48;36.97;100464.22;5086668;28;20231;-60
2022/10/18 11:37:55;;;;;;;0.67;0.67;;;;;;;22.20;36.09;100466.16;5086622;28;20198;-65
2022/10/18 11:40:40;;;;;;;1.20;0.90;;;;;;;21.98;37.42;100461.41;5086688;28;20735;-60
2022/10/18 11:43:17;;;;;;;1.23;0.80;;;;;;;22.24;36.70;100457.06;5086481;28;20186;-65
2022/10/18 11:45:54;;;;;;;0.97;0.87;;;;;;;22.15;37.30;100448.34;5086273;28;20220;-60
2022/10/18 11:48:55;;;;;;;1.53;1.17;;;;;;;22.33;38.18;100440.50;5086338;28;20635;-65
2022/10/18 11:51:31;;;;;;;1.10;1.00;;;;;;;22.22;35.91;100447.75;5086178;28;20228;-60
2022/10/18 11:54:16;;;;;;;0.77;0.77;;;;;;;22.13;38.19;100439.03;5086544;28;20574;-59